Tinsdal — V2AJ2 — position and weather

sailwx.info

Track history (hours):
 
Tides and Currents Weather Stations Pressure Air Temp Water Temp Dewpoint Dewpoint Depression Visibility Wind Speed Wind Dir Waves Ship Positions

Tinsdal

Last reported at 2016-Sep-25 16:33 UTC. Time now 2016-Sep-25 17:32 UTC.
Position N 38°45' W 010°07'.

Length 180 m; draft 6 m.

Type: Cargo ship. MMSI: 305573000.

Date/timePositionNaut miles runAvg speedWind from/ knotsBaromVisibWave heightAir tempDewpointWater temp
2016-Sep-25 16:33N 38°45' W 010°07'10 9.6
2016-Sep-25 15:33N 38°55' W 010°06'9 9.4
2016-Sep-25 14:33N 39°04' W 010°08'  
2016-Sep-22 04:28N 49°56' W 003°12'1010.5
2016-Sep-22 03:33N 49°60' W 002°58'105 9.3
2016-Sep-21 16:17N 50°28' W 000°21'67 9.4
2016-Sep-21 09:13N 50°57' E 001°14'812.1
2016-Sep-21 08:32N 51°02' E 001°24'28 9.4
2016-Sep-21 05:33N 51°24' E 001°52'15 7.4
2016-Sep-21 03:33N 51°35' E 002°07'85 8.5
2016-Sep-20 17:32N 51°54' E 004°21'0 0.0
2016-Sep-20 14:26N 51°54' E 004°21'0 0.0
2016-Sep-20 13:32N 51°54' E 004°21'0 0.0
2016-Sep-20 10:23N 51°54' E 004°21'0 0.0
2016-Sep-20 08:32N 51°54' E 004°21'0 0.0
2016-Sep-20 07:26N 51°54' E 004°21'0 0.0
2016-Sep-20 06:29N 51°54' E 004°21'0 0.0
2016-Sep-20 02:29N 51°54' E 004°21'0 0.0
2016-Sep-19 23:32N 51°54' E 004°21'16 3.8
2016-Sep-19 19:24N 51°42' E 004°37'0 0.0
2016-Sep-19 13:15N 51°42' E 004°37'0 0.0
2016-Sep-19 11:09N 51°42' E 004°37'0 0.0
2016-Sep-19 09:03N 51°42' E 004°37'0 0.0
2016-Sep-18 01:33N 51°42' E 004°37'5 4.9
2016-Sep-18 00:33N 51°46' E 004°38'13 6.6
2016-Sep-17 22:33N 51°53' E 004°19'8 8.1
2016-Sep-17 21:33N 51°58' E 004°09'8 7.7
2016-Sep-17 20:34N 51°60' E 003°56'7 3.5
2016-Sep-17 18:36N 51°57' E 003°46'0 0.0
2016-Sep-17 13:32N 51°57' E 003°46'0 0.1
2016-Sep-17 12:25N 51°57' E 003°46'0 0.0
2016-Sep-17 10:15N 51°57' E 003°46'76 7.9
2016-Sep-17 00:33N 51°14' E 002°04'206 9.3
2016-Sep-16 02:27N 49°48' W 002°51'15 7.8
2016-Sep-16 00:33N 49°40' W 003°10'  
Track history (hours):
 
Tides and Currents Weather Stations Pressure Air Temp Water Temp Dewpoint Dewpoint Depression Visibility Wind Speed Wind Dir Waves Ship Positions

Tinsdal

Last reported at 2016-Sep-25 16:33 UTC. Time now 2016-Sep-25 17:32 UTC.
Position N 38°45' W 010°07'.

Length 180 m; draft 6 m.

Type: Cargo ship. MMSI: 305573000.

Date/timePositionNaut miles runAvg speedWind from/ knotsBaromVisibWave heightAir tempDewpointWater temp
2016-Sep-25 16:33N 38°45' W 010°07'10 9.6
2016-Sep-25 15:33N 38°55' W 010°06'9 9.4
2016-Sep-25 14:33N 39°04' W 010°08'  
2016-Sep-22 04:28N 49°56' W 003°12'1010.5
2016-Sep-22 03:33N 49°60' W 002°58'105 9.3
2016-Sep-21 16:17N 50°28' W 000°21'67 9.4
2016-Sep-21 09:13N 50°57' E 001°14'812.1
2016-Sep-21 08:32N 51°02' E 001°24'28 9.4
2016-Sep-21 05:33N 51°24' E 001°52'15 7.4
2016-Sep-21 03:33N 51°35' E 002°07'85 8.5
2016-Sep-20 17:32N 51°54' E 004°21'0 0.0
2016-Sep-20 14:26N 51°54' E 004°21'0 0.0
2016-Sep-20 13:32N 51°54' E 004°21'0 0.0
2016-Sep-20 10:23N 51°54' E 004°21'0 0.0
2016-Sep-20 08:32N 51°54' E 004°21'0 0.0
2016-Sep-20 07:26N 51°54' E 004°21'0 0.0
2016-Sep-20 06:29N 51°54' E 004°21'0 0.0
2016-Sep-20 02:29N 51°54' E 004°21'0 0.0
2016-Sep-19 23:32N 51°54' E 004°21'16 3.8
2016-Sep-19 19:24N 51°42' E 004°37'0 0.0
2016-Sep-19 13:15N 51°42' E 004°37'0 0.0
2016-Sep-19 11:09N 51°42' E 004°37'0 0.0
2016-Sep-19 09:03N 51°42' E 004°37'0 0.0
2016-Sep-18 01:33N 51°42' E 004°37'5 4.9
2016-Sep-18 00:33N 51°46' E 004°38'13 6.6
2016-Sep-17 22:33N 51°53' E 004°19'8 8.1
2016-Sep-17 21:33N 51°58' E 004°09'8 7.7
2016-Sep-17 20:34N 51°60' E 003°56'7 3.5
2016-Sep-17 18:36N 51°57' E 003°46'0 0.0
2016-Sep-17 13:32N 51°57' E 003°46'0 0.1
2016-Sep-17 12:25N 51°57' E 003°46'0 0.0
2016-Sep-17 10:15N 51°57' E 003°46'76 7.9
2016-Sep-17 00:33N 51°14' E 002°04'206 9.3
2016-Sep-16 02:27N 49°48' W 002°51'15 7.8
2016-Sep-16 00:33N 49°40' W 003°10'  

Dump ship's entire track history